This is the latest recevied weather packets stored in our database for station/object W7TTE. If no packets are shown the sender has not sent any weather packets the latest 10 day(s).
| Time | Temp. | Humidity | Pressure | Rain* | Wind** | Luminosity | Snow |
|---|---|---|---|---|---|---|---|
| 1777834533 | 33.33° C | 18% | 1012.3 hPa | 0 mm | - | 785 W/m² | - |
| 1777833322 | 33.89° C | 17% | 1012.9 hPa | 0 mm | - | 779 W/m² | - |
| 1777833019 | 33.33° C | 19% | 1012.8 hPa | 0 mm | - | 775 W/m² | - |
| 1777832718 | 33.33° C | 18% | 1012.8 hPa | 0 mm | - | 772 W/m² | - |
| 1777832415 | 32.78° C | 18% | 1013.1 hPa | 0 mm | - | 770 W/m² | - |
| 1777828171 | 31.11° C | 20% | 1013.5 hPa | 0 mm | - | 381 W/m² | - |
| 1777826049 | 30° C | 20% | 1013.5 hPa | 0 mm | - | 358 W/m² | - |
| 1777824533 | 29.44° C | 21% | 1013.1 hPa | 0 mm | - | 295 W/m² | - |
| 1777823925 | 29.44° C | 21% | 1013.3 hPa | 0 mm | - | 334 W/m² | - |
| 1777821505 | 27.78° C | 25% | 1013.1 hPa | 0 mm | - | 180 W/m² | - |
| 1777820292 | 25.56° C | 31% | 1013.4 hPa | 0 mm | - | 162 W/m² | - |
| 1777817868 | 23.33° C | 34% | 1012.8 hPa | 0 mm | - | 104 W/m² | - |
| 1777817566 | 23.33° C | 33% | 1013 hPa | 0 mm | - | 92 W/m² | - |
| 1777816353 | 22.78° C | 34% | 1013 hPa | 0 mm | - | 58 W/m² | - |
| 1777814839 | 22.22° C | 36% | 1012.7 hPa | 0 mm | - | 31 W/m² | - |
| 1777814535 | 22.22° C | 35% | 1012.4 hPa | 0 mm | - | 23 W/m² | - |
| 1777813929 | 22.22° C | 34% | 1012.3 hPa | 0 mm | - | 16 W/m² | - |
| 1777813627 | 21.67° C | 36% | 1012.3 hPa | 0 mm | - | 13 W/m² | - |
| 1777813324 | 21.67° C | 34% | 1012.3 hPa | 0 mm | - | 10 W/m² | - |
| 1777812415 | 21.67° C | 33% | 1012 hPa | 0 mm | - | 3 W/m² | - |
| 1777812114 | 21.67° C | 32% | 1012 hPa | 0 mm | - | 2 W/m² | - |
| 1777811811 | 21.67° C | 32% | 1012 hPa | 0 mm | - | 1 W/m² | - |
| 1777811509 | 21.67° C | 32% | 1011.9 hPa | 0 mm | - | 0 W/m² | - |
| 1777811204 | 21.67° C | 30% | 1012 hPa | 0 mm | - | 0 W/m² | - |
| 1777810902 | 21.67° C | 30% | 1011.9 hPa | 0 mm | - | 0 W/m² | - |
* Rain latest hour (hover to see other rain measurements)
** Current wind speed in m/s (hover to see current wind gust speed)